Terminal Aerodrome Forecast
Issued by NWS Pittsburgh, PA

Current Version | Previous Version | Text Only | Print | Product List | Glossary Off
Versions: 1 2 3 4 5 6 7 8 9 10 11 12 13 14 15 16 17 18 19 20 21 22 23 24 25 26

000
FTUS41 KPBZ 251129
TAFPIT
TAF
KPIT 251129Z 2512/2618 04003KT P6SM BKN030
     FM251600 31006KT P6SM VCSH OVC025
     FM252100 32011KT P6SM VCSH OVC012
     FM260300 30005KT P6SM BKN015=

USA.gov is the U.S. government's official web portal to all federal, state and local government web resources and services.